sensor_id;sensor_type;location;lat;lon;timestamp;temperature;humidity
4215;DHT22;2121;48.062;7.850;2023-07-22T00:01:02;13.10;99.90
4215;DHT22;2121;48.062;7.850;2023-07-22T00:03:27;13.10;99.90
4215;DHT22;2121;48.062;7.850;2023-07-22T00:06:05;12.90;99.90
4215;DHT22;2121;48.062;7.850;2023-07-22T00:08:35;12.80;99.90
4215;DHT22;2121;48.062;7.850;2023-07-22T00:11:03;12.60;99.90
4215;DHT22;2121;48.062;7.850;2023-07-22T00:13:30;12.60;99.90
4215;DHT22;2121;48.062;7.850;2023-07-22T00:15:56;12.50;99.90
4215;DHT22;2121;48.062;7.850;2023-07-22T00:18:24;12.50;99.90
4215;DHT22;2121;48.062;7.850;2023-07-22T00:20:52;12.50;99.90
4215;DHT22;2121;48.062;7.850;2023-07-22T00:23:19;12.60;99.90
4215;DHT22;2121;48.062;7.850;2023-07-22T00:25:46;12.70;99.90
4215;DHT22;2121;48.062;7.850;2023-07-22T00:28:12;12.70;99.90
4215;DHT22;2121;48.062;7.850;2023-07-22T00:30:37;12.70;99.90
4215;DHT22;2121;48.062;7.850;2023-07-22T00:33:03;12.70;99.90
4215;DHT22;2121;48.062;7.850;2023-07-22T00:35:29;12.50;99.90
4215;DHT22;2121;48.062;7.850;2023-07-22T00:37:55;12.40;99.90
4215;DHT22;2121;48.062;7.850;2023-07-22T00:40:21;12.40;99.90
4215;DHT22;2121;48.062;7.850;2023-07-22T00:42:46;12.40;99.90
4215;DHT22;2121;48.062;7.850;2023-07-22T00:45:12;12.50;99.90
4215;DHT22;2121;48.062;7.850;2023-07-22T00:47:38;12.40;99.90
4215;DHT22;2121;48.062;7.850;2023-07-22T00:50:06;12.40;99.90
4215;DHT22;2121;48.062;7.850;2023-07-22T00:52:36;12.50;99.90
4215;DHT22;2121;48.062;7.850;2023-07-22T00:55:04;12.50;99.90
4215;DHT22;2121;48.062;7.850;2023-07-22T00:57:31;12.60;99.90
4215;DHT22;2121;48.062;7.850;2023-07-22T00:59:57;12.50;99.90
4215;DHT22;2121;48.062;7.850;2023-07-22T01:02:23;12.50;99.90
4215;DHT22;2121;48.062;7.850;2023-07-22T01:04:52;12.40;99.90
4215;DHT22;2121;48.062;7.850;2023-07-22T01:07:18;12.30;99.90
4215;DHT22;2121;48.062;7.850;2023-07-22T01:09:44;12.30;99.90
4215;DHT22;2121;48.062;7.850;2023-07-22T01:12:10;12.20;99.90
4215;DHT22;2121;48.062;7.850;2023-07-22T01:14:38;12.20;99.90
4215;DHT22;2121;48.062;7.850;2023-07-22T01:17:07;12.10;99.90
4215;DHT22;2121;48.062;7.850;2023-07-22T01:19:34;12.20;99.90
4215;DHT22;2121;48.062;7.850;2023-07-22T01:22:02;12.20;99.90
4215;DHT22;2121;48.062;7.850;2023-07-22T01:24:29;12.20;99.90
4215;DHT22;2121;48.062;7.850;2023-07-22T01:26:56;12.10;99.90
4215;DHT22;2121;48.062;7.850;2023-07-22T01:29:23;12.10;99.90
4215;DHT22;2121;48.062;7.850;2023-07-22T01:31:51;12.10;99.90
4215;DHT22;2121;48.062;7.850;2023-07-22T01:34:19;12.10;99.90
4215;DHT22;2121;48.062;7.850;2023-07-22T01:36:46;12.10;99.90
4215;DHT22;2121;48.062;7.850;2023-07-22T01:39:16;12.10;99.90
4215;DHT22;2121;48.062;7.850;2023-07-22T01:41:43;12.00;99.90
4215;DHT22;2121;48.062;7.850;2023-07-22T01:44:15;12.00;99.90
4215;DHT22;2121;48.062;7.850;2023-07-22T01:46:41;11.90;99.90
4215;DHT22;2121;48.062;7.850;2023-07-22T01:49:09;11.90;99.90
4215;DHT22;2121;48.062;7.850;2023-07-22T01:51:36;11.90;99.90
4215;DHT22;2121;48.062;7.850;2023-07-22T02:01:25;12.10;99.90
4215;DHT22;2121;48.062;7.850;2023-07-22T02:03:51;12.50;99.90
4215;DHT22;2121;48.062;7.850;2023-07-22T02:06:17;12.70;99.90
4215;DHT22;2121;48.062;7.850;2023-07-22T02:08:42;12.80;99.90
4215;DHT22;2121;48.062;7.850;2023-07-22T02:11:08;12.80;99.90
4215;DHT22;2121;48.062;7.850;2023-07-22T02:13:35;12.90;99.90
4215;DHT22;2121;48.062;7.850;2023-07-22T02:16:01;12.90;99.90
4215;DHT22;2121;48.062;7.850;2023-07-22T02:18:28;12.90;99.90
4215;DHT22;2121;48.062;7.850;2023-07-22T02:20:55;12.80;99.90
4215;DHT22;2121;48.062;7.850;2023-07-22T02:23:22;12.80;99.90
4215;DHT22;2121;48.062;7.850;2023-07-22T02:25:52;12.70;99.90
4215;DHT22;2121;48.062;7.850;2023-07-22T02:28:19;12.60;99.90
4215;DHT22;2121;48.062;7.850;2023-07-22T02:30:47;12.60;99.90
4215;DHT22;2121;48.062;7.850;2023-07-22T02:33:14;12.60;99.90
4215;DHT22;2121;48.062;7.850;2023-07-22T02:35:41;12.70;99.90
4215;DHT22;2121;48.062;7.850;2023-07-22T02:38:07;12.80;99.90
4215;DHT22;2121;48.062;7.850;2023-07-22T02:40:37;12.80;99.90
4215;DHT22;2121;48.062;7.850;2023-07-22T02:43:03;12.70;99.90
4215;DHT22;2121;48.062;7.850;2023-07-22T02:45:29;12.80;99.90
4215;DHT22;2121;48.062;7.850;2023-07-22T02:47:55;12.70;99.90
4215;DHT22;2121;48.062;7.850;2023-07-22T02:50:21;12.60;99.90
4215;DHT22;2121;48.062;7.850;2023-07-22T02:52:47;12.60;99.90
4215;DHT22;2121;48.062;7.850;2023-07-22T02:55:15;12.50;99.90
4215;DHT22;2121;48.062;7.850;2023-07-22T02:57:45;12.50;99.90
4215;DHT22;2121;48.062;7.850;2023-07-22T03:00:12;12.60;99.90
4215;DHT22;2121;48.062;7.850;2023-07-22T03:02:40;12.60;99.90
4215;DHT22;2121;48.062;7.850;2023-07-22T03:05:07;12.50;99.90
4215;DHT22;2121;48.062;7.850;2023-07-22T03:07:40;12.50;99.90
4215;DHT22;2121;48.062;7.850;2023-07-22T03:10:06;12.40;99.90
4215;DHT22;2121;48.062;7.850;2023-07-22T03:12:33;12.30;99.90
4215;DHT22;2121;48.062;7.850;2023-07-22T03:14:59;12.30;99.90
4215;DHT22;2121;48.062;7.850;2023-07-22T03:17:26;12.30;99.90
4215;DHT22;2121;48.062;7.850;2023-07-22T03:19:51;12.20;99.90
4215;DHT22;2121;48.062;7.850;2023-07-22T03:22:17;12.20;99.90
4215;DHT22;2121;48.062;7.850;2023-07-22T03:24:44;12.30;99.90
4215;DHT22;2121;48.062;7.850;2023-07-22T03:27:11;12.20;99.90
4215;DHT22;2121;48.062;7.850;2023-07-22T03:29:37;12.20;99.90
4215;DHT22;2121;48.062;7.850;2023-07-22T03:32:04;12.10;99.90
4215;DHT22;2121;48.062;7.850;2023-07-22T03:34:31;12.10;99.90
4215;DHT22;2121;48.062;7.850;2023-07-22T03:36:57;12.10;99.90
4215;DHT22;2121;48.062;7.850;2023-07-22T03:39:24;12.10;99.90
4215;DHT22;2121;48.062;7.850;2023-07-22T03:41:49;12.20;99.90
4215;DHT22;2121;48.062;7.850;2023-07-22T03:44:15;12.30;99.90
4215;DHT22;2121;48.062;7.850;2023-07-22T03:46:41;12.20;99.90
4215;DHT22;2121;48.062;7.850;2023-07-22T03:49:07;12.20;99.90
4215;DHT22;2121;48.062;7.850;2023-07-22T03:51:33;12.30;99.90
4215;DHT22;2121;48.062;7.850;2023-07-22T03:53:59;12.30;99.90
4215;DHT22;2121;48.062;7.850;2023-07-22T03:56:26;12.30;99.90
4215;DHT22;2121;48.062;7.850;2023-07-22T03:58:52;12.20;99.90
4215;DHT22;2121;48.062;7.850;2023-07-22T04:01:18;12.10;99.90
4215;DHT22;2121;48.062;7.850;2023-07-22T04:03:44;12.00;99.90
4215;DHT22;2121;48.062;7.850;2023-07-22T04:06:10;11.90;99.90
4215;DHT22;2121;48.062;7.850;2023-07-22T04:08:36;11.90;99.90
4215;DHT22;2121;48.062;7.850;2023-07-22T04:11:02;11.80;99.90
4215;DHT22;2121;48.062;7.850;2023-07-22T04:13:28;11.90;99.90
4215;DHT22;2121;48.062;7.850;2023-07-22T04:15:54;11.90;99.90
4215;DHT22;2121;48.062;7.850;2023-07-22T04:18:20;12.00;99.90
4215;DHT22;2121;48.062;7.850;2023-07-22T04:20:47;12.00;99.90
4215;DHT22;2121;48.062;7.850;2023-07-22T04:23:16;11.90;99.90
4215;DHT22;2121;48.062;7.850;2023-07-22T04:25:45;12.00;99.90
4215;DHT22;2121;48.062;7.850;2023-07-22T04:28:11;12.00;99.90
4215;DHT22;2121;48.062;7.850;2023-07-22T04:30:38;12.00;99.90
4215;DHT22;2121;48.062;7.850;2023-07-22T04:33:05;12.10;99.90
4215;DHT22;2121;48.062;7.850;2023-07-22T04:35:32;12.10;99.90
4215;DHT22;2121;48.062;7.850;2023-07-22T04:37:58;12.10;99.90
4215;DHT22;2121;48.062;7.850;2023-07-22T04:40:24;12.10;99.90
4215;DHT22;2121;48.062;7.850;2023-07-22T04:42:50;12.10;99.90
4215;DHT22;2121;48.062;7.850;2023-07-22T04:45:17;12.20;99.90
4215;DHT22;2121;48.062;7.850;2023-07-22T04:47:45;12.30;99.90
4215;DHT22;2121;48.062;7.850;2023-07-22T04:50:13;12.50;99.90
4215;DHT22;2121;48.062;7.850;2023-07-22T04:52:39;12.50;99.90
4215;DHT22;2121;48.062;7.850;2023-07-22T04:55:07;12.60;99.90
4215;DHT22;2121;48.062;7.850;2023-07-22T04:57:37;12.70;99.90
4215;DHT22;2121;48.062;7.850;2023-07-22T05:00:04;12.80;99.90
4215;DHT22;2121;48.062;7.850;2023-07-22T05:02:31;12.90;99.90
4215;DHT22;2121;48.062;7.850;2023-07-22T05:04:57;13.10;99.90
4215;DHT22;2121;48.062;7.850;2023-07-22T05:07:23;13.20;99.90
4215;DHT22;2121;48.062;7.850;2023-07-22T05:09:49;13.40;99.90
4215;DHT22;2121;48.062;7.850;2023-07-22T05:12:17;13.50;99.90
4215;DHT22;2121;48.062;7.850;2023-07-22T05:14:44;13.60;99.90
4215;DHT22;2121;48.062;7.850;2023-07-22T05:17:11;13.80;99.90
4215;DHT22;2121;48.062;7.850;2023-07-22T05:19:36;13.70;99.90
4215;DHT22;2121;48.062;7.850;2023-07-22T05:22:02;13.80;99.90
4215;DHT22;2121;48.062;7.850;2023-07-22T05:24:28;13.90;99.90
4215;DHT22;2121;48.062;7.850;2023-07-22T05:26:54;14.10;99.90
4215;DHT22;2121;48.062;7.850;2023-07-22T05:29:20;14.00;99.90
4215;DHT22;2121;48.062;7.850;2023-07-22T05:31:46;14.10;99.90
4215;DHT22;2121;48.062;7.850;2023-07-22T05:34:12;14.20;99.90
4215;DHT22;2121;48.062;7.850;2023-07-22T05:36:38;14.40;99.90
4215;DHT22;2121;48.062;7.850;2023-07-22T05:39:04;14.50;99.90
4215;DHT22;2121;48.062;7.850;2023-07-22T05:41:32;14.60;99.90
4215;DHT22;2121;48.062;7.850;2023-07-22T05:43:58;14.70;99.90
4215;DHT22;2121;48.062;7.850;2023-07-22T05:46:24;14.90;99.90
4215;DHT22;2121;48.062;7.850;2023-07-22T05:48:50;15.00;99.90
4215;DHT22;2121;48.062;7.850;2023-07-22T05:51:15;15.00;99.90
4215;DHT22;2121;48.062;7.850;2023-07-22T05:53:42;15.00;99.90
4215;DHT22;2121;48.062;7.850;2023-07-22T05:56:08;15.10;99.90
4215;DHT22;2121;48.062;7.850;2023-07-22T05:58:34;15.20;99.90
4215;DHT22;2121;48.062;7.850;2023-07-22T06:01:00;15.40;99.90
4215;DHT22;2121;48.062;7.850;2023-07-22T06:03:26;15.60;99.90
4215;DHT22;2121;48.062;7.850;2023-07-22T06:05:51;15.80;99.90
4215;DHT22;2121;48.062;7.850;2023-07-22T06:08:17;16.00;99.90
4215;DHT22;2121;48.062;7.850;2023-07-22T06:10:43;16.20;99.90
4215;DHT22;2121;48.062;7.850;2023-07-22T06:13:09;16.30;99.90
4215;DHT22;2121;48.062;7.850;2023-07-22T06:15:34;16.60;99.90
4215;DHT22;2121;48.062;7.850;2023-07-22T06:18:01;16.80;99.90
4215;DHT22;2121;48.062;7.850;2023-07-22T06:20:27;16.90;99.90
4215;DHT22;2121;48.062;7.850;2023-07-22T06:22:53;17.00;99.90
4215;DHT22;2121;48.062;7.850;2023-07-22T06:25:20;17.10;99.90
4215;DHT22;2121;48.062;7.850;2023-07-22T06:27:46;17.10;99.90
4215;DHT22;2121;48.062;7.850;2023-07-22T06:30:12;16.80;99.90
4215;DHT22;2121;48.062;7.850;2023-07-22T06:32:38;16.70;99.90
4215;DHT22;2121;48.062;7.850;2023-07-22T06:35:05;16.60;99.90
4215;DHT22;2121;48.062;7.850;2023-07-22T06:37:31;16.60;99.90
4215;DHT22;2121;48.062;7.850;2023-07-22T06:39:57;16.90;99.90
4215;DHT22;2121;48.062;7.850;2023-07-22T06:42:22;17.10;99.90
4215;DHT22;2121;48.062;7.850;2023-07-22T06:44:48;17.40;99.90
4215;DHT22;2121;48.062;7.850;2023-07-22T06:47:14;17.60;99.90
4215;DHT22;2121;48.062;7.850;2023-07-22T06:49:40;17.80;99.90
4215;DHT22;2121;48.062;7.850;2023-07-22T06:52:06;18.00;99.90
4215;DHT22;2121;48.062;7.850;2023-07-22T06:54:33;18.30;99.90
4215;DHT22;2121;48.062;7.850;2023-07-22T06:56:59;18.50;99.90
4215;DHT22;2121;48.062;7.850;2023-07-22T06:59:25;18.50;99.90
4215;DHT22;2121;48.062;7.850;2023-07-22T07:01:52;18.70;99.90
4215;DHT22;2121;48.062;7.850;2023-07-22T07:04:18;18.80;99.90
4215;DHT22;2121;48.062;7.850;2023-07-22T07:06:44;18.80;99.90
4215;DHT22;2121;48.062;7.850;2023-07-22T07:09:11;18.90;99.90
4215;DHT22;2121;48.062;7.850;2023-07-22T07:11:37;19.10;99.90
4215;DHT22;2121;48.062;7.850;2023-07-22T07:14:03;19.40;99.90
4215;DHT22;2121;48.062;7.850;2023-07-22T07:16:30;19.50;99.90
4215;DHT22;2121;48.062;7.850;2023-07-22T07:18:58;19.60;99.90
4215;DHT22;2121;48.062;7.850;2023-07-22T07:21:25;19.70;99.90
4215;DHT22;2121;48.062;7.850;2023-07-22T07:23:51;19.80;99.90
4215;DHT22;2121;48.062;7.850;2023-07-22T07:26:18;19.90;99.90
4215;DHT22;2121;48.062;7.850;2023-07-22T07:28:46;20.10;99.90
4215;DHT22;2121;48.062;7.850;2023-07-22T07:31:12;20.10;99.90
4215;DHT22;2121;48.062;7.850;2023-07-22T07:33:38;20.20;99.90
4215;DHT22;2121;48.062;7.850;2023-07-22T07:36:04;20.40;99.90
4215;DHT22;2121;48.062;7.850;2023-07-22T07:38:30;20.40;99.90
4215;DHT22;2121;48.062;7.850;2023-07-22T07:41:02;20.50;99.90
4215;DHT22;2121;48.062;7.850;2023-07-22T07:43:29;20.70;99.90
4215;DHT22;2121;48.062;7.850;2023-07-22T07:46:19;20.80;99.90
4215;DHT22;2121;48.062;7.850;2023-07-22T07:48:55;20.90;99.90
4215;DHT22;2121;48.062;7.850;2023-07-22T07:51:27;21.10;99.90
4215;DHT22;2121;48.062;7.850;2023-07-22T07:53:55;21.20;99.90
4215;DHT22;2121;48.062;7.850;2023-07-22T07:56:22;21.40;99.90
4215;DHT22;2121;48.062;7.850;2023-07-22T07:58:49;21.40;99.90
4215;DHT22;2121;48.062;7.850;2023-07-22T08:01:17;21.50;99.90
4215;DHT22;2121;48.062;7.850;2023-07-22T08:03:43;21.70;99.90
4215;DHT22;2121;48.062;7.850;2023-07-22T08:06:11;21.60;99.90
4215;DHT22;2121;48.062;7.850;2023-07-22T08:08:37;21.50;99.90
4215;DHT22;2121;48.062;7.850;2023-07-22T08:11:11;21.20;99.90
4215;DHT22;2121;48.062;7.850;2023-07-22T08:13:42;21.10;99.90
4215;DHT22;2121;48.062;7.850;2023-07-22T08:16:10;21.10;99.90
4215;DHT22;2121;48.062;7.850;2023-07-22T08:18:38;21.40;99.90
4215;DHT22;2121;48.062;7.850;2023-07-22T08:21:07;21.70;99.90
4215;DHT22;2121;48.062;7.850;2023-07-22T08:23:33;21.90;99.90
4215;DHT22;2121;48.062;7.850;2023-07-22T08:26:00;22.00;99.90
4215;DHT22;2121;48.062;7.850;2023-07-22T08:28:27;22.10;99.90
4215;DHT22;2121;48.062;7.850;2023-07-22T08:30:56;22.20;99.90
4215;DHT22;2121;48.062;7.850;2023-07-22T08:33:23;22.10;99.90
4215;DHT22;2121;48.062;7.850;2023-07-22T08:35:50;22.10;99.90
4215;DHT22;2121;48.062;7.850;2023-07-22T08:38:16;22.20;99.90
4215;DHT22;2121;48.062;7.850;2023-07-22T08:40:42;22.30;99.90
4215;DHT22;2121;48.062;7.850;2023-07-22T08:43:10;22.50;99.60
4215;DHT22;2121;48.062;7.850;2023-07-22T08:45:38;22.60;98.10
4215;DHT22;2121;48.062;7.850;2023-07-22T08:48:07;22.70;98.40
4215;DHT22;2121;48.062;7.850;2023-07-22T08:50:41;22.90;97.60
4215;DHT22;2121;48.062;7.850;2023-07-22T08:53:13;23.10;96.40
4215;DHT22;2121;48.062;7.850;2023-07-22T08:55:39;23.00;95.50
4215;DHT22;2121;48.062;7.850;2023-07-22T08:58:11;23.00;95.80
4215;DHT22;2121;48.062;7.850;2023-07-22T09:00:38;23.00;94.90
4215;DHT22;2121;48.062;7.850;2023-07-22T09:03:05;23.10;96.00
4215;DHT22;2121;48.062;7.850;2023-07-22T09:05:32;23.30;93.50
4215;DHT22;2121;48.062;7.850;2023-07-22T09:08:01;23.40;94.00
4215;DHT22;2121;48.062;7.850;2023-07-22T09:10:28;23.50;92.70
4215;DHT22;2121;48.062;7.850;2023-07-22T09:12:54;23.50;92.40
4215;DHT22;2121;48.062;7.850;2023-07-22T09:15:20;23.40;91.30
4215;DHT22;2121;48.062;7.850;2023-07-22T09:17:47;23.80;93.00
4215;DHT22;2121;48.062;7.850;2023-07-22T09:20:14;24.20;92.80
4215;DHT22;2121;48.062;7.850;2023-07-22T09:22:44;24.30;91.80
4215;DHT22;2121;48.062;7.850;2023-07-22T09:25:13;24.40;91.70
4215;DHT22;2121;48.062;7.850;2023-07-22T09:27:44;24.70;91.30
4215;DHT22;2121;48.062;7.850;2023-07-22T09:30:34;24.80;91.10
4215;DHT22;2121;48.062;7.850;2023-07-22T09:33:02;25.20;90.80
4215;DHT22;2121;48.062;7.850;2023-07-22T09:35:30;25.50;88.00
4215;DHT22;2121;48.062;7.850;2023-07-22T09:38:26;25.70;89.50
4215;DHT22;2121;48.062;7.850;2023-07-22T09:40:52;25.80;88.90
4215;DHT22;2121;48.062;7.850;2023-07-22T09:43:18;25.50;87.10
4215;DHT22;2121;48.062;7.850;2023-07-22T09:45:47;25.60;88.90
4215;DHT22;2121;48.062;7.850;2023-07-22T09:48:13;25.40;87.40
4215;DHT22;2121;48.062;7.850;2023-07-22T09:50:38;25.70;88.00
4215;DHT22;2121;48.062;7.850;2023-07-22T09:53:04;26.20;84.10
4215;DHT22;2121;48.062;7.850;2023-07-22T09:55:32;26.60;82.70
4215;DHT22;2121;48.062;7.850;2023-07-22T09:58:03;26.30;81.40
4215;DHT22;2121;48.062;7.850;2023-07-22T10:00:34;25.80;80.70
4215;DHT22;2121;48.062;7.850;2023-07-22T10:03:03;25.40;82.60
4215;DHT22;2121;48.062;7.850;2023-07-22T10:05:34;25.20;83.70
4215;DHT22;2121;48.062;7.850;2023-07-22T10:08:02;24.80;84.70
4215;DHT22;2121;48.062;7.850;2023-07-22T10:10:37;24.30;85.50
4215;DHT22;2121;48.062;7.850;2023-07-22T10:13:04;24.10;87.80
4215;DHT22;2121;48.062;7.850;2023-07-22T10:15:31;24.20;88.40
4215;DHT22;2121;48.062;7.850;2023-07-22T10:18:02;24.10;87.20
4215;DHT22;2121;48.062;7.850;2023-07-22T10:20:29;24.00;87.40
4215;DHT22;2121;48.062;7.850;2023-07-22T10:22:55;23.70;87.80
4215;DHT22;2121;48.062;7.850;2023-07-22T10:25:22;24.20;87.90
4215;DHT22;2121;48.062;7.850;2023-07-22T10:27:49;24.80;85.30
4215;DHT22;2121;48.062;7.850;2023-07-22T10:30:17;25.30;84.50
4215;DHT22;2121;48.062;7.850;2023-07-22T10:32:46;25.30;84.00
4215;DHT22;2121;48.062;7.850;2023-07-22T10:35:33;25.10;83.10
4215;DHT22;2121;48.062;7.850;2023-07-22T10:38:15;25.10;83.20
4215;DHT22;2121;48.062;7.850;2023-07-22T10:40:51;25.20;82.50
4215;DHT22;2121;48.062;7.850;2023-07-22T10:43:33;25.10;82.30
4215;DHT22;2121;48.062;7.850;2023-07-22T10:46:10;25.30;82.70
4215;DHT22;2121;48.062;7.850;2023-07-22T10:48:41;25.00;80.10
4215;DHT22;2121;48.062;7.850;2023-07-22T10:51:15;24.80;83.10
4215;DHT22;2121;48.062;7.850;2023-07-22T10:53:46;24.80;83.20
4215;DHT22;2121;48.062;7.850;2023-07-22T10:56:19;25.50;82.80
4215;DHT22;2121;48.062;7.850;2023-07-22T11:09:33;26.30;78.90
4215;DHT22;2121;48.062;7.850;2023-07-22T11:12:17;26.30;81.30
4215;DHT22;2121;48.062;7.850;2023-07-22T11:17:17;27.10;79.90
4215;DHT22;2121;48.062;7.850;2023-07-22T11:19:44;26.90;78.90
4215;DHT22;2121;48.062;7.850;2023-07-22T11:22:10;27.10;78.30
4215;DHT22;2121;48.062;7.850;2023-07-22T11:24:36;27.10;76.70
4215;DHT22;2121;48.062;7.850;2023-07-22T11:27:06;26.80;79.50
4215;DHT22;2121;48.062;7.850;2023-07-22T11:29:34;26.90;80.40
4215;DHT22;2121;48.062;7.850;2023-07-22T11:32:01;26.50;80.50
4215;DHT22;2121;48.062;7.850;2023-07-22T11:34:28;25.80;79.80
4215;DHT22;2121;48.062;7.850;2023-07-22T11:36:55;26.10;81.20
4215;DHT22;2121;48.062;7.850;2023-07-22T11:39:26;26.70;80.00
4215;DHT22;2121;48.062;7.850;2023-07-22T11:41:52;27.60;78.00
4215;DHT22;2121;48.062;7.850;2023-07-22T11:44:21;28.00;75.30
4215;DHT22;2121;48.062;7.850;2023-07-22T11:51:58;28.00;73.50
4215;DHT22;2121;48.062;7.850;2023-07-22T11:54:25;28.50;72.10
4215;DHT22;2121;48.062;7.850;2023-07-22T11:56:51;28.20;70.60
4215;DHT22;2121;48.062;7.850;2023-07-22T11:59:17;27.90;73.60
4215;DHT22;2121;48.062;7.850;2023-07-22T12:01:44;27.50;72.90
4215;DHT22;2121;48.062;7.850;2023-07-22T12:04:12;27.90;73.70
4215;DHT22;2121;48.062;7.850;2023-07-22T12:06:39;28.70;72.70
4215;DHT22;2121;48.062;7.850;2023-07-22T12:09:07;29.00;71.50
4215;DHT22;2121;48.062;7.850;2023-07-22T12:11:35;29.80;69.70
4215;DHT22;2121;48.062;7.850;2023-07-22T12:14:13;30.20;68.10
4215;DHT22;2121;48.062;7.850;2023-07-22T12:16:42;30.30;68.10
4215;DHT22;2121;48.062;7.850;2023-07-22T12:19:09;31.50;69.10
4215;DHT22;2121;48.062;7.850;2023-07-22T12:21:35;32.40;66.10
4215;DHT22;2121;48.062;7.850;2023-07-22T12:24:01;31.80;64.20
4215;DHT22;2121;48.062;7.850;2023-07-22T12:26:29;32.80;62.90
4215;DHT22;2121;48.062;7.850;2023-07-22T12:28:55;33.60;61.00
4215;DHT22;2121;48.062;7.850;2023-07-22T12:31:21;33.30;59.70
4215;DHT22;2121;48.062;7.850;2023-07-22T12:33:47;33.10;60.60
4215;DHT22;2121;48.062;7.850;2023-07-22T12:36:12;34.00;60.80
4215;DHT22;2121;48.062;7.850;2023-07-22T12:38:38;34.90;58.30
4215;DHT22;2121;48.062;7.850;2023-07-22T12:41:04;33.80;58.80
4215;DHT22;2121;48.062;7.850;2023-07-22T12:43:30;33.80;60.50
4215;DHT22;2121;48.062;7.850;2023-07-22T12:45:56;33.10;58.00
4215;DHT22;2121;48.062;7.850;2023-07-22T12:48:22;32.90;59.30
4215;DHT22;2121;48.062;7.850;2023-07-22T12:50:50;32.70;59.40
4215;DHT22;2121;48.062;7.850;2023-07-22T12:53:16;33.00;57.40
4215;DHT22;2121;48.062;7.850;2023-07-22T12:55:42;33.50;58.40
4215;DHT22;2121;48.062;7.850;2023-07-22T12:58:07;33.40;58.40
4215;DHT22;2121;48.062;7.850;2023-07-22T13:00:33;34.20;59.30
4215;DHT22;2121;48.062;7.850;2023-07-22T13:02:59;33.20;58.90
4215;DHT22;2121;48.062;7.850;2023-07-22T13:05:25;33.40;60.00
4215;DHT22;2121;48.062;7.850;2023-07-22T13:07:51;32.30;58.90
4215;DHT22;2121;48.062;7.850;2023-07-22T13:10:20;32.40;61.20
4215;DHT22;2121;48.062;7.850;2023-07-22T13:12:47;32.90;59.10
4215;DHT22;2121;48.062;7.850;2023-07-22T13:15:13;33.40;59.10
4215;DHT22;2121;48.062;7.850;2023-07-22T13:17:39;34.60;56.40
4215;DHT22;2121;48.062;7.850;2023-07-22T13:20:05;34.30;57.10
4215;DHT22;2121;48.062;7.850;2023-07-22T13:22:35;33.80;56.90
4215;DHT22;2121;48.062;7.850;2023-07-22T13:25:02;33.80;58.30
4215;DHT22;2121;48.062;7.850;2023-07-22T13:27:28;33.40;57.70
4215;DHT22;2121;48.062;7.850;2023-07-22T13:29:54;34.60;56.70
4215;DHT22;2121;48.062;7.850;2023-07-22T13:32:20;36.50;57.10
4215;DHT22;2121;48.062;7.850;2023-07-22T13:34:46;36.50;54.30
4215;DHT22;2121;48.062;7.850;2023-07-22T13:37:11;36.60;55.50
4215;DHT22;2121;48.062;7.850;2023-07-22T13:39:37;35.40;54.70
4215;DHT22;2121;48.062;7.850;2023-07-22T13:42:03;34.10;56.20
4215;DHT22;2121;48.062;7.850;2023-07-22T13:44:29;34.00;56.90
4215;DHT22;2121;48.062;7.850;2023-07-22T13:46:54;33.90;56.20
4215;DHT22;2121;48.062;7.850;2023-07-22T13:49:20;31.40;58.40
4215;DHT22;2121;48.062;7.850;2023-07-22T13:51:46;30.70;60.50
4215;DHT22;2121;48.062;7.850;2023-07-22T13:54:11;31.90;59.70
4215;DHT22;2121;48.062;7.850;2023-07-22T13:56:37;33.00;59.30
4215;DHT22;2121;48.062;7.850;2023-07-22T13:59:03;34.40;57.60
4215;DHT22;2121;48.062;7.850;2023-07-22T14:01:33;35.80;54.60
4215;DHT22;2121;48.062;7.850;2023-07-22T14:03:58;34.30;55.30
4215;DHT22;2121;48.062;7.850;2023-07-22T14:06:24;33.60;56.30
4215;DHT22;2121;48.062;7.850;2023-07-22T14:08:50;33.70;56.40
4215;DHT22;2121;48.062;7.850;2023-07-22T14:11:15;34.40;56.00
4215;DHT22;2121;48.062;7.850;2023-07-22T14:13:43;35.60;55.60
4215;DHT22;2121;48.062;7.850;2023-07-22T14:16:08;35.40;55.60
4215;DHT22;2121;48.062;7.850;2023-07-22T14:18:34;35.30;51.90
4215;DHT22;2121;48.062;7.850;2023-07-22T14:21:00;35.80;53.40
4215;DHT22;2121;48.062;7.850;2023-07-22T14:23:25;35.30;54.50
4215;DHT22;2121;48.062;7.850;2023-07-22T14:25:51;33.90;53.60
4215;DHT22;2121;48.062;7.850;2023-07-22T14:28:17;33.60;55.00
4215;DHT22;2121;48.062;7.850;2023-07-22T14:30:42;34.20;54.70
4215;DHT22;2121;48.062;7.850;2023-07-22T14:33:08;34.40;54.90
4215;DHT22;2121;48.062;7.850;2023-07-22T14:35:34;34.50;52.80
4215;DHT22;2121;48.062;7.850;2023-07-22T14:38:00;34.60;52.70
4215;DHT22;2121;48.062;7.850;2023-07-22T14:40:26;35.10;53.70
4215;DHT22;2121;48.062;7.850;2023-07-22T14:42:52;34.70;52.50
4215;DHT22;2121;48.062;7.850;2023-07-22T14:45:18;35.20;51.80
4215;DHT22;2121;48.062;7.850;2023-07-22T14:47:44;34.80;51.60
4215;DHT22;2121;48.062;7.850;2023-07-22T14:50:10;35.30;51.20
4215;DHT22;2121;48.062;7.850;2023-07-22T14:52:36;34.70;50.20
4215;DHT22;2121;48.062;7.850;2023-07-22T14:55:02;34.40;50.40
4215;DHT22;2121;48.062;7.850;2023-07-22T14:57:27;34.70;51.30
4215;DHT22;2121;48.062;7.850;2023-07-22T14:59:56;34.10;50.90
4215;DHT22;2121;48.062;7.850;2023-07-22T15:02:21;33.80;51.30
4215;DHT22;2121;48.062;7.850;2023-07-22T15:04:48;34.00;52.60
4215;DHT22;2121;48.062;7.850;2023-07-22T15:07:14;35.10;50.90
4215;DHT22;2121;48.062;7.850;2023-07-22T15:09:39;35.80;50.50
4215;DHT22;2121;48.062;7.850;2023-07-22T15:12:05;35.60;50.80
4215;DHT22;2121;48.062;7.850;2023-07-22T15:14:33;36.00;50.50
4215;DHT22;2121;48.062;7.850;2023-07-22T15:16:59;37.50;48.90
4215;DHT22;2121;48.062;7.850;2023-07-22T15:19:25;37.00;48.10
4215;DHT22;2121;48.062;7.850;2023-07-22T15:21:51;36.60;48.60
4215;DHT22;2121;48.062;7.850;2023-07-22T15:24:18;36.80;48.50
4215;DHT22;2121;48.062;7.850;2023-07-22T15:26:44;38.40;48.30
4215;DHT22;2121;48.062;7.850;2023-07-22T15:29:09;38.20;47.90
4215;DHT22;2121;48.062;7.850;2023-07-22T15:31:35;36.60;48.00
4215;DHT22;2121;48.062;7.850;2023-07-22T15:34:01;36.70;48.90
4215;DHT22;2121;48.062;7.850;2023-07-22T15:36:27;36.70;48.60
4215;DHT22;2121;48.062;7.850;2023-07-22T15:38:53;36.60;48.50
4215;DHT22;2121;48.062;7.850;2023-07-22T15:41:19;37.30;48.50
4215;DHT22;2121;48.062;7.850;2023-07-22T15:43:44;37.40;47.60
4215;DHT22;2121;48.062;7.850;2023-07-22T15:46:10;36.70;50.10
4215;DHT22;2121;48.062;7.850;2023-07-22T15:48:36;37.20;48.80
4215;DHT22;2121;48.062;7.850;2023-07-22T15:51:01;36.70;49.10
4215;DHT22;2121;48.062;7.850;2023-07-22T15:53:27;36.80;48.60
4215;DHT22;2121;48.062;7.850;2023-07-22T15:55:53;35.90;49.20
4215;DHT22;2121;48.062;7.850;2023-07-22T15:58:18;36.50;48.90
4215;DHT22;2121;48.062;7.850;2023-07-22T16:00:46;36.50;48.90
4215;DHT22;2121;48.062;7.850;2023-07-22T16:03:13;38.40;49.40
4215;DHT22;2121;48.062;7.850;2023-07-22T16:05:39;39.70;48.10
4215;DHT22;2121;48.062;7.850;2023-07-22T16:08:06;40.00;46.60
4215;DHT22;2121;48.062;7.850;2023-07-22T16:10:32;38.50;47.10
4215;DHT22;2121;48.062;7.850;2023-07-22T16:13:01;37.50;47.80
4215;DHT22;2121;48.062;7.850;2023-07-22T16:15:27;37.20;48.90
4215;DHT22;2121;48.062;7.850;2023-07-22T16:17:53;37.60;48.00
4215;DHT22;2121;48.062;7.850;2023-07-22T16:20:19;36.90;48.10
4215;DHT22;2121;48.062;7.850;2023-07-22T16:22:45;36.30;48.40
4215;DHT22;2121;48.062;7.850;2023-07-22T16:25:11;36.20;49.10
4215;DHT22;2121;48.062;7.850;2023-07-22T16:27:37;37.00;49.10